Time;durP1;ratioP1;P1;durP2;ratioP2;P2;SDS_P1;SDS_P2;PMS_P1;PMS_P2;Temp;Humidity;BMP_temperature;BMP_pressure;BME280_temperature;BME280_humidity;BME280_pressure;Samples;Min_cycle;Max_cycle;Signal;HPM_P1;HPM_P2
2023/05/09 00:01:30;;;;;;;5.15;4.65;;;;;;;;;;5069443;28;20214;-58
2023/05/09 00:03:57;;;;;;;5.55;4.88;;;;;;;;;;5070047;28;20756;-58
2023/05/09 00:06:25;;;;;;;5.43;4.95;;;;;;;;;;5069405;28;20203;-58
2023/05/09 00:08:52;;;;;;;7.72;5.50;;;;;;;;;;5070072;28;20271;-58
2023/05/09 00:11:20;;;;;;;5.65;5.05;;;;;;;;;;5069658;28;20250;-58
2023/05/09 00:13:47;;;;;;;5.45;4.95;;;;;;;;;;5069953;28;20790;-58
2023/05/09 00:16:15;;;;;;;7.88;5.28;;;;;;;;;;5069455;28;20214;-58
2023/05/09 00:18:42;;;;;;;7.90;5.85;;;;;;;;;;5069266;28;20671;-58
2023/05/09 00:21:09;;;;;;;6.38;5.78;;;;;;;;;;5069605;28;20587;-58
2023/05/09 00:23:38;;;;;;;5.97;5.20;;;;;;;;;;5069511;28;20743;-58
2023/05/09 00:26:05;;;;;;;6.93;5.78;;;;;;;;;;5069549;28;20673;-58
2023/05/09 00:28:32;;;;;;;6.93;5.68;;;;;;;;;;5069182;28;20292;-58
2023/05/09 00:30:59;;;;;;;6.68;5.43;;;;;;;;;;5069091;28;20725;-58
2023/05/09 00:33:27;;;;;;;6.07;5.47;;;;;;;;;;5069026;28;20218;-58
2023/05/09 00:35:54;;;;;;;5.88;4.93;;;;;;;;;;5069138;28;20199;-58
2023/05/09 00:38:21;;;;;;;6.68;5.75;;;;;;;;;;5067673;28;20336;-58
2023/05/09 00:40:49;;;;;;;6.65;5.93;;;;;;;;;;5068780;28;20330;-58
2023/05/09 00:43:16;;;;;;;6.72;5.68;;;;;;;;;;5068577;28;20234;-58
2023/05/09 00:45:44;;;;;;;6.00;5.35;;;;;;;;;;5068834;28;20294;-58
2023/05/09 00:48:11;;;;;;;7.28;5.68;;;;;;;;;;5067960;28;21047;-57
2023/05/09 00:50:38;;;;;;;7.90;5.82;;;;;;;;;;5068785;28;20672;-58
2023/05/09 00:53:05;;;;;;;9.70;5.90;;;;;;;;;;5068752;28;20796;-58
2023/05/09 00:55:32;;;;;;;5.97;5.30;;;;;;;;;;5068829;28;20199;-58
2023/05/09 00:58:00;;;;;;;5.82;5.20;;;;;;;;;;5067849;28;20206;-58
2023/05/09 01:00:28;;;;;;;7.47;5.57;;;;;;;;;;5065876;28;20207;-58
2023/05/09 01:02:56;;;;;;;5.82;5.22;;;;;;;;;;5066604;28;20231;-58
2023/05/09 01:05:26;;;;;;;7.72;5.15;;;;;;;;;;5067990;28;20218;-57
2023/05/09 01:07:57;;;;;;;9.02;5.80;;;;;;;;;;5066616;28;20226;-57
2023/05/09 01:10:28;;;;;;;7.30;5.03;;;;;;;;;;5068757;28;20231;-57
2023/05/09 01:12:59;;;;;;;10.60;5.68;;;;;;;;;;5068392;28;20195;-57
2023/05/09 01:15:31;;;;;;;6.20;5.55;;;;;;;;;;5053462;28;20778;-57
2023/05/09 01:18:00;;;;;;;7.82;5.63;;;;;;;;;;5058240;28;20290;-57
2023/05/09 01:20:32;;;;;;;6.60;5.75;;;;;;;;;;5068275;28;20203;-57
2023/05/09 01:23:05;;;;;;;4.97;4.57;;;;;;;;;;5067718;28;20226;-57
2023/05/09 01:25:55;;;;;;;6.25;5.50;;;;;;;;;;5068015;28;20211;-58
2023/05/09 01:28:35;;;;;;;8.00;5.93;;;;;;;;;;5067913;28;20211;-57
2023/05/09 01:31:04;;;;;;;7.18;5.78;;;;;;;;;;5066779;28;20293;-57
2023/05/09 01:33:33;;;;;;;10.02;5.65;;;;;;;;;;5068268;28;20260;-57
2023/05/09 01:36:03;;;;;;;6.10;5.30;;;;;;;;;;5067589;28;20199;-57
2023/05/09 01:38:31;;;;;;;6.07;5.07;;;;;;;;;;5067629;28;20297;-57
2023/05/09 01:40:59;;;;;;;5.28;4.85;;;;;;;;;;5067553;28;20242;-57
2023/05/09 01:43:28;;;;;;;6.00;5.43;;;;;;;;;;5063281;28;20578;-57
2023/05/09 01:45:55;;;;;;;9.68;5.68;;;;;;;;;;5067505;28;20234;-57
2023/05/09 01:48:25;;;;;;;6.60;5.38;;;;;;;;;;5067086;28;20214;-57
2023/05/09 01:50:52;;;;;;;7.18;5.68;;;;;;;;;;5067102;28;20199;-56
2023/05/09 01:53:20;;;;;;;7.07;5.53;;;;;;;;;;5067626;28;20211;-57
2023/05/09 01:55:47;;;;;;;6.18;5.10;;;;;;;;;;5067091;28;20811;-57
2023/05/09 01:58:15;;;;;;;7.25;5.50;;;;;;;;;;5065540;28;20195;-57
2023/05/09 02:00:43;;;;;;;5.82;5.28;;;;;;;;;;5056321;28;20210;-57
2023/05/09 02:03:10;;;;;;;7.25;5.35;;;;;;;;;;5067448;28;20198;-57
2023/05/09 02:05:39;;;;;;;5.88;5.30;;;;;;;;;;5067014;28;20241;-57
2023/05/09 02:08:07;;;;;;;6.03;5.43;;;;;;;;;;5066672;28;20251;-57
2023/05/09 02:10:34;;;;;;;5.45;4.95;;;;;;;;;;5066984;28;20212;-57
2023/05/09 02:13:02;;;;;;;5.82;5.22;;;;;;;;;;5067238;28;20899;-56
2023/05/09 02:15:29;;;;;;;6.43;5.50;;;;;;;;;;5065729;28;20207;-58
2023/05/09 02:17:56;;;;;;;9.68;5.07;;;;;;;;;;5067089;28;20195;-57
2023/05/09 02:20:23;;;;;;;9.70;5.82;;;;;;;;;;5066556;28;20203;-57
2023/05/09 02:22:52;;;;;;;7.15;5.05;;;;;;;;;;5066767;28;20231;-57
2023/05/09 02:25:19;;;;;;;5.63;5.10;;;;;;;;;;5066815;28;20242;-57
2023/05/09 02:27:46;;;;;;;6.22;5.00;;;;;;;;;;5066994;28;20898;-57
2023/05/09 02:30:15;;;;;;;6.70;5.78;;;;;;;;;;5066820;28;20199;-57
2023/05/09 02:32:43;;;;;;;8.00;5.32;;;;;;;;;;5065913;28;20665;-57
2023/05/09 02:35:12;;;;;;;5.70;4.95;;;;;;;;;;5066974;28;20203;-57
2023/05/09 02:37:39;;;;;;;6.43;5.50;;;;;;;;;;5065960;28;20207;-57
2023/05/09 02:40:09;;;;;;;6.53;5.18;;;;;;;;;;5066867;28;20367;-57
2023/05/09 02:42:36;;;;;;;8.30;6.22;;;;;;;;;;5066885;28;20203;-57
2023/05/09 02:45:03;;;;;;;7.30;4.97;;;;;;;;;;5067266;28;20279;-57
2023/05/09 02:47:30;;;;;;;5.82;5.22;;;;;;;;;;5066259;28;21024;-58
2023/05/09 02:49:57;;;;;;;5.88;5.20;;;;;;;;;;5066831;28;20199;-57
2023/05/09 02:52:25;;;;;;;8.38;6.22;;;;;;;;;;5066131;28;20206;-58
2023/05/09 02:54:52;;;;;;;8.63;5.95;;;;;;;;;;5067011;28;20651;-58
2023/05/09 02:57:21;;;;;;;6.70;5.22;;;;;;;;;;5066877;28;20271;-58
2023/05/09 02:59:48;;;;;;;6.88;6.00;;;;;;;;;;5066403;28;20318;-57
2023/05/09 03:02:15;;;;;;;6.50;5.80;;;;;;;;;;5066564;28;20257;-58
2023/05/09 03:04:42;;;;;;;8.88;5.28;;;;;;;;;;5050742;28;20258;-57
2023/05/09 03:07:09;;;;;;;10.50;5.82;;;;;;;;;;5066525;28;20219;-58
2023/05/09 03:09:36;;;;;;;7.03;6.03;;;;;;;;;;5066271;28;20227;-58
2023/05/09 03:12:03;;;;;;;8.25;5.45;;;;;;;;;;5066921;28;20593;-57
2023/05/09 03:14:31;;;;;;;14.02;6.20;;;;;;;;;;5066206;28;20290;-58
2023/05/09 03:16:58;;;;;;;7.00;5.82;;;;;;;;;;5066570;28;20195;-57
2023/05/09 03:19:26;;;;;;;7.60;5.65;;;;;;;;;;5066115;28;20240;-58
2023/05/09 03:21:53;;;;;;;6.70;5.68;;;;;;;;;;5066539;28;20264;-58
2023/05/09 03:24:20;;;;;;;6.68;5.05;;;;;;;;;;5066233;28;20230;-58
2023/05/09 03:26:47;;;;;;;6.65;5.50;;;;;;;;;;5066294;28;20206;-58
2023/05/09 03:29:13;;;;;;;6.15;5.53;;;;;;;;;;5065997;28;20222;-58
2023/05/09 03:31:42;;;;;;;8.18;6.32;;;;;;;;;;5066105;28;20203;-58
2023/05/09 03:34:13;;;;;;;6.85;5.63;;;;;;;;;;5066573;28;20214;-58
2023/05/09 03:36:40;;;;;;;7.63;5.75;;;;;;;;;;5066088;28;20203;-57
2023/05/09 03:39:08;;;;;;;6.43;5.10;;;;;;;;;;5065853;28;20196;-58
2023/05/09 03:41:36;;;;;;;6.00;5.20;;;;;;;;;;5064203;28;20288;-57
2023/05/09 03:44:03;;;;;;;7.90;6.18;;;;;;;;;;5065958;28;20195;-58
2023/05/09 03:46:30;;;;;;;7.57;6.03;;;;;;;;;;5065860;28;20207;-58
2023/05/09 03:48:58;;;;;;;6.18;5.57;;;;;;;;;;5065886;28;20291;-57
2023/05/09 03:51:25;;;;;;;6.70;5.53;;;;;;;;;;5065974;28;20206;-57
2023/05/09 03:53:52;;;;;;;7.53;6.07;;;;;;;;;;5066431;28;20207;-58
2023/05/09 03:56:19;;;;;;;7.68;5.80;;;;;;;;;;5066008;28;20214;-58
2023/05/09 03:58:46;;;;;;;8.48;6.28;;;;;;;;;;5066079;28;20203;-58
2023/05/09 04:01:13;;;;;;;8.35;5.85;;;;;;;;;;5065952;28;20658;-58
2023/05/09 04:03:41;;;;;;;7.45;6.07;;;;;;;;;;5064595;28;20214;-58
2023/05/09 04:06:09;;;;;;;11.45;5.28;;;;;;;;;;5065956;28;20294;-58
2023/05/09 04:08:36;;;;;;;8.95;6.10;;;;;;;;;;5065760;28;20223;-58
2023/05/09 04:11:03;;;;;;;7.53;5.80;;;;;;;;;;5065920;28;20211;-58
2023/05/09 04:13:31;;;;;;;6.13;5.43;;;;;;;;;;5068468;28;20657;-58
2023/05/09 04:15:58;;;;;;;5.97;5.25;;;;;;;;;;5069660;28;20241;-58
2023/05/09 04:18:26;;;;;;;6.38;5.57;;;;;;;;;;5069597;28;20203;-58
2023/05/09 04:20:53;;;;;;;7.53;6.18;;;;;;;;;;5069244;28;20206;-57
2023/05/09 04:23:21;;;;;;;7.80;6.13;;;;;;;;;;5053876;28;20317;-57
2023/05/09 04:25:50;;;;;;;6.38;5.78;;;;;;;;;;5069454;28;20195;-58
2023/05/09 04:28:17;;;;;;;9.75;6.13;;;;;;;;;;5069005;28;20285;-58
2023/05/09 04:30:44;;;;;;;6.30;5.70;;;;;;;;;;5068948;28;20207;-58
2023/05/09 04:33:11;;;;;;;7.28;5.70;;;;;;;;;;5076861;28;20198;-58
2023/05/09 04:35:40;;;;;;;8.75;6.50;;;;;;;;;;5078756;28;20571;-58
2023/05/09 04:38:07;;;;;;;6.18;5.53;;;;;;;;;;5069503;28;20225;-58
2023/05/09 04:40:35;;;;;;;7.13;5.53;;;;;;;;;;5069336;28;20227;-59
2023/05/09 04:43:03;;;;;;;6.20;5.60;;;;;;;;;;5069200;28;20203;-58
2023/05/09 04:45:30;;;;;;;7.18;5.85;;;;;;;;;;5069473;28;20207;-58
2023/05/09 04:47:57;;;;;;;5.88;5.32;;;;;;;;;;5069092;28;20547;-58
2023/05/09 04:50:24;;;;;;;9.50;6.32;;;;;;;;;;5069089;28;20215;-58
2023/05/09 04:52:51;;;;;;;8.65;5.50;;;;;;;;;;5067993;28;20207;-58
2023/05/09 04:55:18;;;;;;;6.95;6.22;;;;;;;;;;5068719;28;20558;-58
2023/05/09 04:57:47;;;;;;;7.97;5.85;;;;;;;;;;5069042;28;20260;-58
2023/05/09 05:00:15;;;;;;;7.97;6.45;;;;;;;;;;5067773;28;20211;-58
2023/05/09 05:02:42;;;;;;;8.02;6.13;;;;;;;;;;5067136;28;20211;-58
2023/05/09 05:05:09;;;;;;;9.80;7.22;;;;;;;;;;5068515;28;20249;-58
2023/05/09 05:07:36;;;;;;;12.15;6.97;;;;;;;;;;5068633;28;20211;-58
2023/05/09 05:10:05;;;;;;;8.90;6.45;;;;;;;;;;5068522;28;20567;-58
2023/05/09 05:12:32;;;;;;;11.02;6.93;;;;;;;;;;5068124;28;20207;-58
2023/05/09 05:15:00;;;;;;;9.00;6.80;;;;;;;;;;5068690;28;20361;-58
2023/05/09 05:17:28;;;;;;;9.32;7.13;;;;;;;;;;5067987;28;20210;-58
2023/05/09 05:19:55;;;;;;;9.15;7.07;;;;;;;;;;5068649;28;20191;-58
2023/05/09 05:22:23;;;;;;;8.63;7.15;;;;;;;;;;5067753;28;20528;-58
2023/05/09 05:24:50;;;;;;;9.55;7.47;;;;;;;;;;5068501;28;20222;-58
2023/05/09 05:27:17;;;;;;;9.30;6.82;;;;;;;;;;5067261;28;20272;-58
2023/05/09 05:29:44;;;;;;;12.48;7.40;;;;;;;;;;5068414;28;20214;-58
2023/05/09 05:32:12;;;;;;;10.70;7.40;;;;;;;;;;5064937;28;20199;-58
2023/05/09 05:34:39;;;;;;;9.15;7.35;;;;;;;;;;5066318;28;20223;-58
2023/05/09 05:37:06;;;;;;;11.23;8.00;;;;;;;;;;5067270;28;20217;-58
2023/05/09 05:39:33;;;;;;;9.90;7.68;;;;;;;;;;5067630;28;20203;-58
2023/05/09 05:42:00;;;;;;;9.18;7.18;;;;;;;;;;5067371;28;20645;-56
2023/05/09 05:44:27;;;;;;;9.10;7.30;;;;;;;;;;5067326;28;20207;-57
2023/05/09 05:46:54;;;;;;;9.77;7.35;;;;;;;;;;5060004;28;20211;-59
2023/05/09 05:49:23;;;;;;;12.57;8.10;;;;;;;;;;5066166;28;20226;-59
2023/05/09 05:52:14;;;;;;;10.10;7.30;;;;;;;;;;5067683;28;20595;-59
2023/05/09 05:54:41;;;;;;;10.85;8.15;;;;;;;;;;5053974;28;20207;-59
2023/05/09 05:57:08;;;;;;;12.13;7.20;;;;;;;;;;5067592;28;20848;-59
2023/05/09 05:59:35;;;;;;;9.07;6.97;;;;;;;;;;5067561;28;20199;-59
2023/05/09 06:02:03;;;;;;;13.00;7.43;;;;;;;;;;5067655;28;20203;-59
2023/05/09 06:04:31;;;;;;;13.13;7.85;;;;;;;;;;5067437;28;20677;-58
2023/05/09 06:06:58;;;;;;;11.73;7.63;;;;;;;;;;5066691;28;20256;-58
2023/05/09 06:09:25;;;;;;;8.70;7.40;;;;;;;;;;5065152;28;20230;-58
2023/05/09 06:11:52;;;;;;;9.68;6.45;;;;;;;;;;5067201;28;20304;-58
2023/05/09 06:14:20;;;;;;;8.93;7.13;;;;;;;;;;5066760;28;20288;-58
2023/05/09 06:16:47;;;;;;;11.82;7.45;;;;;;;;;;5066557;28;20206;-60
2023/05/09 06:19:14;;;;;;;9.32;7.20;;;;;;;;;;5066651;28;20207;-61
2023/05/09 06:21:42;;;;;;;11.57;6.53;;;;;;;;;;5066522;28;20225;-58
2023/05/09 06:24:09;;;;;;;12.15;7.90;;;;;;;;;;5062380;28;20218;-59
2023/05/09 06:26:36;;;;;;;12.10;7.70;;;;;;;;;;5066133;28;20256;-59
2023/05/09 06:29:04;;;;;;;10.65;7.45;;;;;;;;;;5066859;28;20288;-58
2023/05/09 06:31:31;;;;;;;8.07;7.18;;;;;;;;;;5066573;28;20203;-58
2023/05/09 06:33:58;;;;;;;11.13;8.05;;;;;;;;;;5066400;28;20286;-57
2023/05/09 06:36:26;;;;;;;12.80;7.57;;;;;;;;;;5066148;28;20214;-58
2023/05/09 06:38:54;;;;;;;10.23;7.28;;;;;;;;;;5066259;28;20290;-59
2023/05/09 06:41:21;;;;;;;11.57;8.23;;;;;;;;;;5066461;28;20235;-58
2023/05/09 06:43:48;;;;;;;8.98;7.55;;;;;;;;;;5066738;28;20223;-57
2023/05/09 06:46:15;;;;;;;10.23;7.35;;;;;;;;;;5066349;28;20214;-58
2023/05/09 06:48:42;;;;;;;12.45;7.22;;;;;;;;;;5066151;28;20210;-59
2023/05/09 06:51:10;;;;;;;11.45;7.95;;;;;;;;;;5066292;28;20218;-60
2023/05/09 06:53:37;;;;;;;9.10;7.30;;;;;;;;;;5066568;28;20210;-58
2023/05/09 06:56:06;;;;;;;10.50;7.43;;;;;;;;;;5066658;28;20219;-58
2023/05/09 06:58:33;;;;;;;8.68;6.03;;;;;;;;;;5064586;28;20302;-58
2023/05/09 07:01:00;;;;;;;8.40;6.53;;;;;;;;;;5066280;28;20211;-62
2023/05/09 07:03:27;;;;;;;8.70;6.75;;;;;;;;;;5066622;28;20210;-63
2023/05/09 07:05:56;;;;;;;8.00;6.20;;;;;;;;;;5066442;28;20215;-58
2023/05/09 07:08:23;;;;;;;10.90;6.88;;;;;;;;;;5064063;28;20673;-60
2023/05/09 07:10:50;;;;;;;7.28;6.00;;;;;;;;;;5064359;28;20235;-58
2023/05/09 07:13:18;;;;;;;14.48;7.53;;;;;;;;;;5066917;28;20988;-59
2023/05/09 07:15:45;;;;;;;9.00;7.28;;;;;;;;;;5065801;28;20550;-58
2023/05/09 07:18:12;;;;;;;10.82;7.75;;;;;;;;;;5064318;28;20210;-58
2023/05/09 07:20:39;;;;;;;8.27;7.05;;;;;;;;;;5063525;28;20195;-59
2023/05/09 07:23:07;;;;;;;10.55;6.57;;;;;;;;;;5066602;28;20856;-59
2023/05/09 07:25:34;;;;;;;8.85;6.80;;;;;;;;;;5064529;28;20206;-59
2023/05/09 07:28:01;;;;;;;11.38;7.13;;;;;;;;;;5066631;28;20624;-59
2023/05/09 07:30:29;;;;;;;8.52;6.25;;;;;;;;;;5059595;28;20226;-58
2023/05/09 07:32:56;;;;;;;13.90;7.40;;;;;;;;;;5046476;28;20238;-58
2023/05/09 07:35:23;;;;;;;11.32;7.93;;;;;;;;;;5067781;28;20210;-59
2023/05/09 07:37:50;;;;;;;9.85;6.80;;;;;;;;;;5086262;28;20243;-59
2023/05/09 07:40:17;;;;;;;11.48;7.50;;;;;;;;;;5086025;28;20275;-59
2023/05/09 07:42:48;;;;;;;7.38;6.15;;;;;;;;;;5086181;28;20215;-58
2023/05/09 07:45:15;;;;;;;12.25;8.15;;;;;;;;;;5085779;28;20320;-59
2023/05/09 07:47:43;;;;;;;10.35;6.88;;;;;;;;;;5087762;28;20213;-59
2023/05/09 07:50:11;;;;;;;10.88;6.82;;;;;;;;;;5078155;28;20776;-59
2023/05/09 07:52:38;;;;;;;16.58;8.20;;;;;;;;;;5069205;28;20219;-59
2023/05/09 07:55:05;;;;;;;10.55;6.47;;;;;;;;;;5069319;28;20219;-59
2023/05/09 07:57:32;;;;;;;10.27;7.57;;;;;;;;;;5069608;28;20215;-59
2023/05/09 07:59:59;;;;;;;13.30;8.10;;;;;;;;;;5069715;28;20202;-59
2023/05/09 08:02:26;;;;;;;14.93;8.45;;;;;;;;;;5069471;28;20214;-59
2023/05/09 08:04:55;;;;;;;17.00;8.40;;;;;;;;;;5069110;28;20219;-59
2023/05/09 08:07:22;;;;;;;13.18;8.10;;;;;;;;;;5069480;28;20256;-59
2023/05/09 08:09:49;;;;;;;11.63;7.68;;;;;;;;;;5068974;28;20280;-59
2023/05/09 08:12:16;;;;;;;12.63;8.02;;;;;;;;;;5069107;28;20234;-59
2023/05/09 08:14:43;;;;;;;14.10;7.88;;;;;;;;;;5068889;28;20211;-59
2023/05/09 08:17:10;;;;;;;15.43;8.65;;;;;;;;;;5069146;28;20214;-59
2023/05/09 08:19:37;;;;;;;15.48;8.93;;;;;;;;;;5069087;28;20210;-58
2023/05/09 08:22:05;;;;;;;16.27;8.90;;;;;;;;;;5068992;28;20211;-58
2023/05/09 08:24:32;;;;;;;14.07;8.57;;;;;;;;;;5068767;28;20239;-59
2023/05/09 08:26:59;;;;;;;15.55;9.50;;;;;;;;;;5069286;28;20222;-59
2023/05/09 08:29:27;;;;;;;13.07;8.48;;;;;;;;;;5069027;28;20330;-59
2023/05/09 08:31:54;;;;;;;14.02;9.15;;;;;;;;;;5069259;28;20211;-59
2023/05/09 08:34:21;;;;;;;18.33;9.45;;;;;;;;;;5068758;28;20207;-59
2023/05/09 08:36:48;;;;;;;16.63;9.32;;;;;;;;;;5068932;28;20222;-59
2023/05/09 08:39:18;;;;;;;17.42;9.30;;;;;;;;;;5068196;28;20772;-59
2023/05/09 08:41:45;;;;;;;15.32;8.85;;;;;;;;;;5069092;28;20281;-59
2023/05/09 08:44:12;;;;;;;14.48;8.68;;;;;;;;;;5068705;28;20211;-58
2023/05/09 08:46:39;;;;;;;14.15;9.15;;;;;;;;;;5068486;28;20481;-59
2023/05/09 08:49:07;;;;;;;16.30;9.57;;;;;;;;;;5068538;28;20215;-59
2023/05/09 08:51:34;;;;;;;15.32;9.80;;;;;;;;;;5068600;28;20216;-58
2023/05/09 08:54:01;;;;;;;14.02;9.30;;;;;;;;;;5068256;28;20454;-59
2023/05/09 08:56:30;;;;;;;18.65;9.57;;;;;;;;;;5068658;28;20207;-59
2023/05/09 08:58:57;;;;;;;13.32;9.55;;;;;;;;;;5065555;28;20215;-59
2023/05/09 09:01:25;;;;;;;16.98;9.88;;;;;;;;;;5066614;28;20210;-59
2023/05/09 09:03:52;;;;;;;15.43;10.30;;;;;;;;;;5066514;28;20240;-59
2023/05/09 09:06:20;;;;;;;13.95;8.98;;;;;;;;;;5067983;28;20214;-59
2023/05/09 09:08:47;;;;;;;11.13;8.57;;;;;;;;;;5068026;28;20207;-58
2023/05/09 09:11:15;;;;;;;17.02;10.00;;;;;;;;;;5067780;28;20776;-58
2023/05/09 09:13:44;;;;;;;19.92;10.10;;;;;;;;;;5068259;28;20224;-59
2023/05/09 09:16:15;;;;;;;13.63;8.88;;;;;;;;;;5066159;28;20211;-59
2023/05/09 09:18:42;;;;;;;17.23;10.23;;;;;;;;;;5068433;28;20249;-58
2023/05/09 09:21:10;;;;;;;17.52;10.35;;;;;;;;;;5067895;28;20211;-59
2023/05/09 09:23:38;;;;;;;16.98;10.80;;;;;;;;;;5068042;28;20717;-59
2023/05/09 09:26:06;;;;;;;13.02;9.30;;;;;;;;;;5067917;28;20215;-59
2023/05/09 09:28:33;;;;;;;14.40;9.57;;;;;;;;;;5068325;28;20210;-59
2023/05/09 09:31:01;;;;;;;15.90;10.20;;;;;;;;;;5067463;28;20242;-59
2023/05/09 09:33:30;;;;;;;15.85;9.63;;;;;;;;;;5068209;28;20232;-59
2023/05/09 09:35:58;;;;;;;16.38;11.00;;;;;;;;;;5067024;28;20272;-59
2023/05/09 09:38:25;;;;;;;15.73;10.70;;;;;;;;;;5068225;28;20206;-59
2023/05/09 09:40:55;;;;;;;16.77;8.88;;;;;;;;;;5067438;28;20641;-59
2023/05/09 09:43:27;;;;;;;13.35;9.68;;;;;;;;;;5067710;28;20207;-59
2023/05/09 09:45:55;;;;;;;16.65;9.20;;;;;;;;;;5067213;28;20261;-59
2023/05/09 09:48:25;;;;;;;14.15;8.98;;;;;;;;;;5067678;28;20211;-59
2023/05/09 09:50:54;;;;;;;14.85;9.45;;;;;;;;;;5066900;28;20284;-59
2023/05/09 09:53:22;;;;;;;15.50;9.40;;;;;;;;;;5067300;28;20288;-59
2023/05/09 09:55:50;;;;;;;17.25;9.85;;;;;;;;;;5066908;28;20674;-59
2023/05/09 09:58:18;;;;;;;16.00;9.32;;;;;;;;;;5067625;28;20213;-59
2023/05/09 10:00:45;;;;;;;14.63;9.48;;;;;;;;;;5067231;28;20629;-59
2023/05/09 10:03:15;;;;;;;14.05;9.38;;;;;;;;;;5067439;28;20217;-59
2023/05/09 10:05:44;;;;;;;14.13;9.68;;;;;;;;;;5067009;28;20617;-59
2023/05/09 10:08:11;;;;;;;18.25;9.00;;;;;;;;;;5067473;28;20877;-58
2023/05/09 10:10:38;;;;;;;13.43;9.65;;;;;;;;;;5065908;28;20258;-58
2023/05/09 10:13:08;;;;;;;14.55;9.45;;;;;;;;;;5067277;28;20301;-58
2023/05/09 10:15:35;;;;;;;14.05;9.18;;;;;;;;;;5067064;28;20254;-60
2023/05/09 10:18:03;;;;;;;11.27;7.85;;;;;;;;;;5067160;28;20214;-60
2023/05/09 10:20:30;;;;;;;15.57;9.48;;;;;;;;;;5067083;28;20272;-60
2023/05/09 10:23:01;;;;;;;15.73;9.05;;;;;;;;;;5066727;28;20258;-60
2023/05/09 10:25:33;;;;;;;12.88;9.60;;;;;;;;;;5066498;28;20218;-60
2023/05/09 10:28:01;;;;;;;15.10;9.65;;;;;;;;;;5067091;28;20360;-60
2023/05/09 10:30:30;;;;;;;15.00;10.52;;;;;;;;;;5066751;28;20223;-60
2023/05/09 10:33:00;;;;;;;17.00;9.50;;;;;;;;;;5067021;28;20217;-60
2023/05/09 10:35:30;;;;;;;16.90;10.27;;;;;;;;;;5066793;28;20579;-59
2023/05/09 10:37:58;;;;;;;16.15;9.38;;;;;;;;;;5066557;28;20217;-60
2023/05/09 10:40:26;;;;;;;12.75;9.13;;;;;;;;;;5066283;28;20235;-60
2023/05/09 10:42:53;;;;;;;14.27;9.68;;;;;;;;;;5066375;28;20218;-60
2023/05/09 10:45:21;;;;;;;14.75;9.07;;;;;;;;;;5066465;28;20214;-60
2023/05/09 10:47:49;;;;;;;14.70;9.77;;;;;;;;;;5066266;28;20226;-60
2023/05/09 10:50:16;;;;;;;11.40;8.68;;;;;;;;;;5066099;28;20235;-60
2023/05/09 10:53:02;;;;;;;11.73;9.20;;;;;;;;;;5066567;28;20207;-60
2023/05/09 10:55:37;;;;;;;12.63;8.75;;;;;;;;;;5066668;28;20292;-61
2023/05/09 10:58:18;;;;;;;12.43;8.30;;;;;;;;;;5066707;28;20210;-59
2023/05/09 11:00:46;;;;;;;17.75;9.75;;;;;;;;;;5066636;28;20298;-60
2023/05/09 11:03:13;;;;;;;12.98;8.80;;;;;;;;;;5066228;28;20223;-60
2023/05/09 11:05:40;;;;;;;14.13;9.48;;;;;;;;;;5066418;28;20564;-60
2023/05/09 11:08:20;;;;;;;14.07;9.48;;;;;;;;;;5066069;28;20206;-60
2023/05/09 11:10:49;;;;;;;12.75;8.55;;;;;;;;;;5066005;28;20246;-60
2023/05/09 11:13:19;;;;;;;17.08;9.60;;;;;;;;;;5066318;28;20631;-60
2023/05/09 11:15:51;;;;;;;14.15;8.75;;;;;;;;;;5065935;28;20206;-60
2023/05/09 11:18:18;;;;;;;13.43;9.13;;;;;;;;;;5066080;28;20309;-60
2023/05/09 11:20:46;;;;;;;11.05;8.25;;;;;;;;;;5065915;28;20214;-60
2023/05/09 11:23:16;;;;;;;12.95;9.27;;;;;;;;;;5069716;28;20223;-61
2023/05/09 11:25:46;;;;;;;14.32;9.77;;;;;;;;;;5069799;28;20305;-60
2023/05/09 11:28:26;;;;;;;15.43;9.23;;;;;;;;;;5069598;28;20218;-58
2023/05/09 11:30:54;;;;;;;11.35;8.43;;;;;;;;;;5066019;28;20653;-59
2023/05/09 11:33:24;;;;;;;12.00;8.55;;;;;;;;;;5065239;28;20211;-59
2023/05/09 11:36:06;;;;;;;10.20;8.00;;;;;;;;;;5069890;28;20676;-59
2023/05/09 11:38:41;;;;;;;12.00;8.82;;;;;;;;;;5068410;28;20869;-59
2023/05/09 11:41:08;;;;;;;14.15;9.60;;;;;;;;;;5073546;28;20325;-59
2023/05/09 11:43:37;;;;;;;13.02;9.13;;;;;;;;;;5072235;28;20772;-59
2023/05/09 11:46:04;;;;;;;11.48;8.70;;;;;;;;;;5068684;28;20222;-58
2023/05/09 11:48:32;;;;;;;11.77;9.00;;;;;;;;;;5067008;28;20579;-60
2023/05/09 11:50:59;;;;;;;15.00;10.13;;;;;;;;;;5071320;28;20231;-59
2023/05/09 11:53:26;;;;;;;16.60;10.55;;;;;;;;;;5068063;28;20261;-59
2023/05/09 11:55:53;;;;;;;12.13;9.32;;;;;;;;;;5070955;28;20211;-59
2023/05/09 11:58:20;;;;;;;15.95;10.25;;;;;;;;;;5068340;28;20226;-60
2023/05/09 12:00:49;;;;;;;12.25;8.68;;;;;;;;;;5067992;28;20625;-59
2023/05/09 12:03:16;;;;;;;12.68;9.38;;;;;;;;;;5068153;28;20233;-59
2023/05/09 12:05:43;;;;;;;11.90;9.63;;;;;;;;;;5067631;28;20591;-59
2023/05/09 12:08:10;;;;;;;12.55;8.75;;;;;;;;;;5068603;28;20211;-59
2023/05/09 12:10:39;;;;;;;12.00;9.07;;;;;;;;;;5067350;28;20235;-59
2023/05/09 12:13:06;;;;;;;12.73;9.25;;;;;;;;;;5066448;28;20317;-60
2023/05/09 12:15:36;;;;;;;13.88;8.68;;;;;;;;;;5070638;28;20741;-60
2023/05/09 12:18:06;;;;;;;12.15;8.73;;;;;;;;;;5066034;28;20667;-59
2023/05/09 12:20:43;;;;;;;11.23;8.27;;;;;;;;;;5068182;28;20669;-59
2023/05/09 12:23:11;;;;;;;12.88;8.02;;;;;;;;;;5068368;28;20218;-60
2023/05/09 12:25:38;;;;;;;12.30;8.18;;;;;;;;;;5069548;28;20211;-60
2023/05/09 12:28:06;;;;;;;10.98;7.95;;;;;;;;;;5068953;28;20195;-60
2023/05/09 12:30:33;;;;;;;10.02;7.97;;;;;;;;;;5067191;28;20235;-60
2023/05/09 12:33:00;;;;;;;8.38;6.82;;;;;;;;;;5087943;28;20211;-60
2023/05/09 12:35:28;;;;;;;7.60;6.22;;;;;;;;;;5074968;28;20203;-60
2023/05/09 12:37:56;;;;;;;7.72;6.93;;;;;;;;;;5067186;28;20235;-57
2023/05/09 12:40:23;;;;;;;6.75;6.03;;;;;;;;;;5068002;28;20242;-60
2023/05/09 12:42:53;;;;;;;5.15;4.75;;;;;;;;;;5069819;28;20265;-58
2023/05/09 12:45:20;;;;;;;5.32;4.82;;;;;;;;;;5068188;28;20207;-58
2023/05/09 12:47:51;;;;;;;5.47;5.07;;;;;;;;;;5068577;28;20322;-58
2023/05/09 12:50:18;;;;;;;6.57;4.90;;;;;;;;;;5067663;28;20215;-58
2023/05/09 12:52:50;;;;;;;7.07;4.35;;;;;;;;;;5067965;28;20351;-58
2023/05/09 12:55:19;;;;;;;4.00;3.72;;;;;;;;;;5068218;28;20310;-58
2023/05/09 12:57:57;;;;;;;3.70;3.47;;;;;;;;;;5068494;28;20298;-57
2023/05/09 13:00:25;;;;;;;4.35;4.05;;;;;;;;;;5068260;28;20665;-59
2023/05/09 13:02:52;;;;;;;4.18;3.88;;;;;;;;;;5067837;28;20203;-58
2023/05/09 13:05:19;;;;;;;3.97;3.72;;;;;;;;;;5067630;28;20293;-59
2023/05/09 13:07:49;;;;;;;3.85;3.55;;;;;;;;;;5069641;28;20632;-59
2023/05/09 13:10:18;;;;;;;4.43;4.03;;;;;;;;;;5070698;28;20231;-59
2023/05/09 13:12:47;;;;;;;4.53;3.10;;;;;;;;;;5068294;28;20720;-58
2023/05/09 13:15:14;;;;;;;4.20;3.60;;;;;;;;;;5070717;28;20249;-59
2023/05/09 13:17:41;;;;;;;3.88;3.67;;;;;;;;;;5068588;28;20211;-58
2023/05/09 13:20:09;;;;;;;4.03;3.83;;;;;;;;;;5067344;28;20204;-59
2023/05/09 13:22:36;;;;;;;3.70;3.50;;;;;;;;;;5076544;28;20202;-58
2023/05/09 13:25:05;;;;;;;3.90;3.65;;;;;;;;;;5085651;28;20568;-59
2023/05/09 13:27:32;;;;;;;3.75;3.50;;;;;;;;;;5075235;28;20214;-59
2023/05/09 13:30:00;;;;;;;3.75;3.53;;;;;;;;;;5085854;28;20214;-58
2023/05/09 13:32:27;;;;;;;4.82;3.63;;;;;;;;;;5067880;28;20576;-58
2023/05/09 13:34:54;;;;;;;6.90;3.55;;;;;;;;;;5066483;28;20210;-61
2023/05/09 13:37:21;;;;;;;3.65;3.45;;;;;;;;;;5066846;28;20237;-59
2023/05/09 13:39:48;;;;;;;4.03;3.72;;;;;;;;;;5067312;28;20282;-59
2023/05/09 13:42:17;;;;;;;3.95;3.72;;;;;;;;;;5067333;28;20216;-59
2023/05/09 13:44:44;;;;;;;4.47;4.07;;;;;;;;;;5066806;28;20210;-59
2023/05/09 13:47:11;;;;;;;4.32;4.03;;;;;;;;;;5067597;28;20328;-59
2023/05/09 13:49:39;;;;;;;4.15;3.80;;;;;;;;;;5066964;28;20207;-59
2023/05/09 13:52:07;;;;;;;4.90;4.32;;;;;;;;;;5066849;28;20230;-59
2023/05/09 13:54:34;;;;;;;4.53;4.13;;;;;;;;;;5066511;28;20272;-59
2023/05/09 13:57:02;;;;;;;4.88;4.45;;;;;;;;;;5066913;28;20209;-59
2023/05/09 13:59:30;;;;;;;5.00;4.60;;;;;;;;;;5067717;28;20578;-62
2023/05/09 14:01:58;;;;;;;4.32;4.03;;;;;;;;;;5067301;28;20290;-59
2023/05/09 14:04:25;;;;;;;4.93;4.43;;;;;;;;;;5066524;28;20233;-58
2023/05/09 14:06:52;;;;;;;4.68;4.28;;;;;;;;;;5065959;28;20214;-59
2023/05/09 14:09:20;;;;;;;4.72;4.38;;;;;;;;;;5066561;28;20592;-58
2023/05/09 14:11:47;;;;;;;4.47;4.07;;;;;;;;;;5066750;28;20545;-59
2023/05/09 14:14:14;;;;;;;4.68;4.28;;;;;;;;;;5066817;28;20206;-58
2023/05/09 14:16:42;;;;;;;3.92;3.72;;;;;;;;;;5066849;28;20630;-58
2023/05/09 14:19:10;;;;;;;5.22;4.28;;;;;;;;;;5066863;28;20214;-59
2023/05/09 14:21:38;;;;;;;4.60;4.30;;;;;;;;;;5066129;28;20508;-59
2023/05/09 14:24:05;;;;;;;5.40;4.82;;;;;;;;;;5066483;28;20284;-58
2023/05/09 14:26:50;;;;;;;4.68;4.22;;;;;;;;;;5058466;28;20760;-60
2023/05/09 14:29:17;;;;;;;4.05;3.80;;;;;;;;;;5057847;28;20218;-59
2023/05/09 14:31:46;;;;;;;4.57;4.22;;;;;;;;;;5065934;28;20239;-59
2023/05/09 14:34:13;;;;;;;4.80;4.40;;;;;;;;;;5065474;28;20612;-59
2023/05/09 14:39:45;;;;;;;4.00;3.70;;;;;;;;;;5062266;28;20733;-59
2023/05/09 14:44:54;;;;;;;5.03;4.35;;;;;;;;;;5633129;23;20291;-59
2023/05/09 14:47:23;;;;;;;5.07;4.55;;;;;;;;;;4999012;28;20212;-60